createdAt,value
2023-03-15T00:00:58.054Z,3.70
2023-03-15T00:03:24.645Z,3.88
2023-03-15T00:05:51.629Z,3.73
2023-03-15T00:08:18.572Z,3.95
2023-03-15T00:10:46.740Z,3.50
2023-03-15T00:13:14.213Z,3.65
2023-03-15T00:15:52.192Z,4.18
2023-03-15T00:18:20.221Z,4.00
2023-03-15T00:20:47.509Z,3.95
2023-03-15T00:23:15.449Z,4.07
2023-03-15T00:25:46.463Z,4.00
2023-03-15T00:28:13.510Z,3.85
2023-03-15T00:30:40.347Z,4.13
2023-03-15T00:33:07.262Z,4.07
2023-03-15T00:35:38.682Z,3.78
2023-03-15T00:38:05.318Z,4.30
2023-03-15T00:40:31.937Z,4.20
2023-03-15T00:42:58.656Z,4.10
2023-03-15T00:45:25.437Z,4.20
2023-03-15T00:47:54.196Z,4.38
2023-03-15T00:50:22.650Z,4.43
2023-03-15T00:52:49.709Z,4.13
2023-03-15T00:55:19.096Z,4.23
2023-03-15T00:57:46.573Z,4.05
2023-03-15T01:00:18.066Z,4.60
2023-03-15T01:02:44.891Z,4.35
2023-03-15T01:05:12.921Z,4.60
2023-03-15T01:07:39.474Z,4.30
2023-03-15T01:10:07.420Z,4.28
2023-03-15T01:12:34.482Z,4.53
2023-03-15T01:15:04.113Z,4.38
2023-03-15T01:17:34.120Z,3.92
2023-03-15T01:20:00.907Z,4.30
2023-03-15T01:22:27.578Z,4.38
2023-03-15T01:24:54.172Z,4.40
2023-03-15T01:27:20.703Z,4.30
2023-03-15T01:29:47.451Z,4.50
2023-03-15T01:32:14.083Z,4.67
2023-03-15T01:34:43.150Z,4.30
2023-03-15T01:37:10.810Z,5.00
2023-03-15T01:39:37.389Z,5.07
2023-03-15T01:42:04.076Z,4.97
2023-03-15T01:44:50.722Z,4.70
2023-03-15T01:47:17.790Z,4.53
2023-03-15T01:49:48.269Z,4.80
2023-03-15T01:52:26.143Z,4.10
2023-03-15T01:55:20.172Z,4.63
2023-03-15T01:57:58.890Z,4.30
2023-03-15T02:00:25.656Z,4.75
2023-03-15T02:03:00.659Z,4.75
2023-03-15T02:05:35.416Z,4.05
2023-03-15T02:08:04.763Z,5.43
2023-03-15T02:10:37.074Z,4.93
2023-03-15T02:13:04.266Z,5.10
2023-03-15T02:15:31.325Z,5.20
2023-03-15T02:17:58.058Z,5.30
2023-03-15T02:20:46.275Z,5.05
2023-03-15T02:23:15.555Z,4.90
2023-03-15T02:26:09.726Z,4.72
2023-03-15T02:28:36.822Z,5.43
2023-03-15T02:31:03.778Z,3.22
2023-03-15T02:33:35.369Z,3.30
2023-03-15T02:36:24.031Z,3.60
2023-03-15T02:38:51.688Z,3.67
2023-03-15T02:41:40.319Z,3.60
2023-03-15T02:44:10.895Z,3.55
2023-03-15T02:46:38.317Z,3.92
2023-03-15T02:49:08.546Z,3.27
2023-03-15T02:51:35.061Z,3.50
2023-03-15T02:54:01.657Z,3.45
2023-03-15T02:56:28.325Z,3.35
2023-03-15T02:58:55.017Z,3.08
2023-03-15T03:01:21.549Z,2.90
2023-03-15T03:03:48.142Z,2.58
2023-03-15T03:06:16.278Z,2.88
2023-03-15T03:08:42.930Z,2.45
2023-03-15T03:11:09.611Z,2.40
2023-03-15T03:13:36.267Z,2.10
2023-03-15T03:16:02.865Z,2.28
2023-03-15T03:18:30.616Z,3.47
2023-03-15T03:20:58.793Z,3.83
2023-03-15T03:23:26.858Z,3.50
2023-03-15T03:25:54.851Z,4.07
2023-03-15T03:28:27.286Z,4.65
2023-03-15T03:30:55.309Z,3.80
2023-03-15T03:33:23.081Z,4.38
2023-03-15T03:35:50.060Z,4.07
2023-03-15T03:38:17.134Z,3.70
2023-03-15T03:40:43.729Z,3.85
2023-03-15T03:43:10.285Z,3.95
2023-03-15T03:45:36.924Z,3.60
2023-03-15T03:48:03.637Z,3.78
2023-03-15T03:50:30.223Z,3.63
2023-03-15T03:52:56.771Z,4.25
2023-03-15T03:55:23.354Z,3.28
2023-03-15T03:57:49.984Z,3.85
2023-03-15T04:00:17.091Z,3.30
2023-03-15T04:02:43.658Z,2.63
2023-03-15T04:05:11.314Z,3.13
2023-03-15T04:07:38.868Z,3.22
2023-03-15T04:10:06.000Z,3.30
2023-03-15T04:12:32.867Z,2.95
2023-03-15T04:14:59.522Z,2.97
2023-03-15T04:17:26.046Z,2.80
2023-03-15T04:19:52.602Z,2.70
2023-03-15T04:22:19.196Z,3.10
2023-03-15T04:24:45.862Z,2.85
2023-03-15T04:27:12.440Z,2.83
2023-03-15T04:29:38.981Z,2.88
2023-03-15T04:32:05.563Z,2.80
2023-03-15T04:34:32.110Z,3.20
2023-03-15T04:36:58.634Z,2.90
2023-03-15T04:39:25.153Z,3.00
2023-03-15T04:41:51.718Z,4.03
2023-03-15T04:44:18.237Z,3.60
2023-03-15T04:46:44.844Z,3.83
2023-03-15T04:49:11.703Z,3.80
2023-03-15T04:51:38.296Z,3.60
2023-03-15T04:54:04.928Z,3.70
2023-03-15T04:56:45.374Z,4.60
2023-03-15T04:59:11.977Z,4.30
2023-03-15T05:01:38.752Z,4.40
2023-03-15T05:04:05.475Z,4.18
2023-03-15T05:06:32.162Z,4.07
2023-03-15T05:08:58.842Z,4.65
2023-03-15T05:11:25.580Z,4.25
2023-03-15T05:13:52.339Z,4.30
2023-03-15T05:16:19.168Z,4.40
2023-03-15T05:18:45.664Z,4.83
2023-03-15T05:21:12.940Z,4.97
2023-03-15T05:23:39.660Z,5.03
2023-03-15T05:26:06.380Z,4.82
2023-03-15T05:28:32.997Z,4.93
2023-03-15T05:31:00.743Z,5.20
2023-03-15T05:33:27.454Z,5.90
2023-03-15T05:35:54.093Z,5.18
2023-03-15T05:38:20.718Z,5.30
2023-03-15T05:40:47.372Z,5.07
2023-03-15T05:43:14.072Z,5.10
2023-03-15T05:45:40.675Z,4.90
2023-03-15T05:48:07.346Z,5.00
2023-03-15T05:50:34.056Z,4.95
2023-03-15T05:53:00.612Z,4.88
2023-03-15T05:55:27.281Z,5.27
2023-03-15T05:57:53.841Z,5.82
2023-03-15T06:00:20.816Z,5.97
2023-03-15T06:02:47.407Z,5.63
2023-03-15T06:05:13.969Z,7.13
2023-03-15T06:07:40.573Z,8.03
2023-03-15T06:10:07.672Z,6.78
2023-03-15T06:12:34.338Z,6.90
2023-03-15T06:15:00.970Z,6.35
2023-03-15T06:17:27.480Z,8.77
2023-03-15T06:19:56.849Z,7.53
2023-03-15T06:22:23.387Z,6.32
2023-03-15T06:24:50.127Z,6.50
2023-03-15T06:27:16.720Z,6.93
2023-03-15T06:29:43.236Z,7.13
2023-03-15T06:32:09.947Z,8.80
2023-03-15T06:34:36.509Z,7.63
2023-03-15T06:37:03.056Z,7.65
2023-03-15T06:39:29.672Z,6.53
2023-03-15T06:41:56.198Z,6.13
2023-03-15T06:44:22.775Z,7.63
2023-03-15T06:46:49.380Z,7.50
2023-03-15T06:49:15.919Z,6.15
2023-03-15T06:51:42.622Z,5.90
2023-03-15T06:54:09.163Z,5.90
2023-03-15T06:56:35.797Z,5.13
2023-03-15T06:59:02.346Z,5.70
2023-03-15T07:01:31.533Z,5.07
2023-03-15T07:03:58.370Z,5.10
2023-03-15T07:06:25.223Z,5.40
2023-03-15T07:08:51.762Z,5.10
2023-03-15T07:11:18.377Z,5.63
2023-03-15T07:13:44.903Z,5.50
2023-03-15T07:16:11.548Z,4.82
2023-03-15T07:18:38.162Z,5.05
2023-03-15T07:21:05.724Z,4.83
2023-03-15T07:23:32.541Z,5.72
2023-03-15T07:25:59.454Z,5.88
2023-03-15T07:28:26.894Z,6.25
2023-03-15T07:30:54.137Z,6.13
2023-03-15T07:33:21.131Z,5.70
2023-03-15T07:35:48.232Z,6.22
2023-03-15T07:38:14.782Z,6.65
2023-03-15T07:40:41.343Z,6.50
2023-03-15T07:43:07.900Z,6.10
2023-03-15T07:45:34.436Z,6.57
2023-03-15T07:48:00.940Z,6.28
2023-03-15T07:50:27.810Z,6.35
2023-03-15T07:52:54.434Z,5.38
2023-03-15T07:55:21.000Z,5.40
2023-03-15T07:57:49.999Z,5.10
2023-03-15T08:00:18.042Z,5.68
2023-03-15T08:02:44.854Z,4.75
2023-03-15T08:05:11.573Z,3.45
2023-03-15T08:07:38.094Z,3.10
2023-03-15T08:10:04.968Z,3.00
2023-03-15T08:12:31.919Z,3.25
2023-03-15T08:14:58.570Z,3.10
2023-03-15T08:17:25.125Z,2.75
2023-03-15T08:19:51.736Z,2.30
2023-03-15T08:22:18.293Z,2.40
2023-03-15T08:24:44.909Z,2.50
2023-03-15T08:27:11.495Z,2.60
2023-03-15T08:29:38.329Z,2.88
2023-03-15T08:32:07.607Z,2.25
2023-03-15T08:34:35.294Z,2.23
2023-03-15T08:37:01.878Z,2.10
2023-03-15T08:39:29.818Z,2.15
2023-03-15T08:41:56.379Z,2.85
2023-03-15T08:44:22.858Z,2.15
2023-03-15T08:46:49.606Z,2.03
2023-03-15T08:49:16.171Z,1.60
2023-03-15T08:51:42.859Z,1.40
2023-03-15T08:54:09.419Z,1.27
2023-03-15T08:56:36.139Z,1.80
2023-03-15T08:59:02.800Z,1.27
2023-03-15T09:01:29.295Z,1.65
2023-03-15T09:03:56.096Z,1.50
2023-03-15T09:06:22.673Z,1.15
2023-03-15T09:08:49.240Z,1.90
2023-03-15T09:11:15.779Z,1.40
2023-03-15T09:13:42.315Z,1.70
2023-03-15T09:16:08.843Z,1.75
2023-03-15T09:18:35.409Z,1.85
2023-03-15T09:21:02.028Z,1.77
2023-03-15T09:23:28.572Z,1.70
2023-03-15T09:25:55.162Z,1.42
2023-03-15T09:28:21.750Z,1.45
2023-03-15T09:30:48.379Z,1.30
2023-03-15T09:33:14.997Z,1.70
2023-03-15T09:35:41.695Z,1.40
2023-03-15T09:38:08.576Z,1.65
2023-03-15T09:40:41.596Z,1.83
2023-03-15T09:43:08.078Z,1.80
2023-03-15T09:46:02.415Z,1.60
2023-03-15T09:48:38.057Z,1.60
2023-03-15T09:51:08.754Z,1.33
2023-03-15T09:53:54.519Z,1.63
2023-03-15T09:56:41.874Z,1.50
2023-03-15T09:59:10.015Z,1.50
2023-03-15T10:01:39.528Z,1.57
2023-03-15T10:04:33.410Z,1.88
2023-03-15T10:07:01.943Z,1.83
2023-03-15T10:09:31.672Z,1.92
2023-03-15T10:12:16.571Z,1.92
2023-03-15T10:15:11.176Z,1.80
2023-03-15T10:17:43.861Z,1.70
2023-03-15T10:20:15.779Z,2.35
2023-03-15T10:22:50.163Z,2.08
2023-03-15T10:25:23.118Z,2.40
2023-03-15T10:27:54.623Z,2.30
2023-03-15T10:30:24.770Z,2.20
2023-03-15T10:33:04.129Z,2.30
2023-03-15T10:35:30.897Z,2.05
2023-03-15T10:37:58.041Z,2.22
2023-03-15T10:40:50.664Z,2.27
2023-03-15T10:43:23.039Z,2.00
2023-03-15T10:46:12.250Z,2.40
2023-03-15T10:48:51.830Z,2.25
2023-03-15T10:51:28.347Z,2.20
2023-03-15T10:54:08.247Z,2.20
2023-03-15T10:56:43.617Z,2.50
2023-03-15T10:59:22.784Z,2.30
2023-03-15T11:02:07.273Z,2.22
2023-03-15T11:04:34.487Z,2.17
2023-03-15T11:07:04.008Z,2.10
2023-03-15T11:09:42.176Z,2.05
2023-03-15T11:12:18.266Z,2.00
2023-03-15T11:14:48.959Z,1.80
2023-03-15T11:17:19.218Z,2.03
2023-03-15T11:20:01.596Z,1.90
2023-03-15T11:22:28.285Z,2.30
2023-03-15T11:24:54.983Z,1.90
2023-03-15T11:27:24.087Z,2.80
2023-03-15T11:29:55.125Z,2.78
2023-03-15T11:32:27.336Z,2.30
2023-03-15T11:35:24.687Z,3.15
2023-03-15T11:38:13.062Z,2.08
2023-03-15T11:40:48.118Z,1.73
2023-03-15T11:43:28.128Z,2.17
2023-03-15T11:46:06.105Z,2.00
2023-03-15T11:48:53.898Z,2.72
2023-03-15T11:51:20.723Z,2.22
2023-03-15T11:54:10.530Z,2.15
2023-03-15T11:56:43.468Z,2.05
2023-03-15T11:59:15.274Z,2.10
2023-03-15T12:02:29.082Z,2.10
2023-03-15T12:04:57.241Z,1.55
2023-03-15T12:07:39.918Z,2.10
2023-03-15T12:10:31.075Z,1.90
2023-03-15T12:13:17.224Z,1.97
2023-03-15T12:15:45.756Z,2.15
2023-03-15T12:18:16.401Z,2.20
2023-03-15T12:20:50.534Z,2.25
2023-03-15T12:23:17.177Z,2.03
2023-03-15T12:26:01.198Z,1.90
2023-03-15T12:28:29.966Z,2.10
2023-03-15T12:30:59.244Z,2.33
2023-03-15T12:33:26.743Z,2.67
2023-03-15T12:36:00.588Z,2.72
2023-03-15T12:38:35.702Z,2.77
2023-03-15T12:41:08.573Z,3.28
2023-03-15T12:43:36.155Z,3.35
2023-03-15T12:46:03.569Z,3.22
2023-03-15T12:48:31.045Z,2.92
2023-03-15T12:51:03.408Z,2.67
2023-03-15T12:53:32.714Z,2.42
2023-03-15T12:56:23.721Z,2.38
2023-03-15T12:58:55.291Z,2.50
2023-03-15T13:01:22.378Z,2.10
2023-03-15T13:03:55.167Z,2.53
2023-03-15T13:06:39.648Z,2.42
2023-03-15T13:09:09.006Z,2.30
2023-03-15T13:12:06.343Z,2.33
2023-03-15T13:14:44.462Z,2.10
2023-03-15T13:17:28.855Z,2.10
2023-03-15T13:20:13.572Z,2.13
2023-03-15T13:23:03.457Z,2.20
2023-03-15T13:25:41.268Z,2.05
2023-03-15T13:28:38.359Z,2.42
2023-03-15T13:31:31.774Z,2.10
2023-03-15T13:34:19.978Z,1.98
2023-03-15T13:36:49.277Z,2.22
2023-03-15T13:39:31.646Z,2.50
2023-03-15T13:41:58.206Z,2.40
2023-03-15T13:44:26.023Z,2.67
2023-03-15T13:46:53.792Z,2.40
2023-03-15T13:49:20.929Z,2.97
2023-03-15T13:51:49.576Z,2.67
2023-03-15T13:54:30.687Z,2.40
2023-03-15T13:57:05.871Z,2.50
2023-03-15T13:59:40.930Z,2.38
2023-03-15T14:02:13.245Z,3.03
2023-03-15T14:04:39.912Z,2.38
2023-03-15T14:07:29.569Z,2.50
2023-03-15T14:10:23.160Z,3.60
2023-03-15T14:12:51.470Z,3.38
2023-03-15T14:15:25.558Z,3.50
2023-03-15T14:18:07.503Z,3.60
2023-03-15T14:20:43.992Z,3.70
2023-03-15T14:23:18.232Z,3.60
2023-03-15T14:25:53.638Z,4.47
2023-03-15T14:28:23.538Z,4.32
2023-03-15T14:30:58.414Z,4.45
2023-03-15T14:33:52.031Z,4.60
2023-03-15T14:36:29.376Z,4.50
2023-03-15T14:38:58.780Z,4.00
2023-03-15T14:41:28.645Z,4.25
2023-03-15T14:43:55.436Z,4.80
2023-03-15T14:46:22.165Z,4.65
2023-03-15T14:48:51.848Z,4.40
2023-03-15T14:51:21.436Z,4.93
2023-03-15T14:53:51.606Z,4.65
2023-03-15T14:56:19.802Z,4.70
2023-03-15T14:58:46.559Z,4.88
2023-03-15T15:01:17.838Z,4.80
2023-03-15T15:04:02.077Z,5.10
2023-03-15T15:06:30.162Z,5.22
2023-03-15T15:08:59.210Z,5.00
2023-03-15T15:11:26.566Z,5.35
2023-03-15T15:13:53.406Z,4.97
2023-03-15T15:16:20.165Z,5.40
2023-03-15T15:18:46.878Z,5.50
2023-03-15T15:21:43.093Z,5.10
2023-03-15T15:24:26.097Z,5.47
2023-03-15T15:26:59.364Z,5.97
2023-03-15T15:29:26.056Z,5.47
2023-03-15T15:31:54.539Z,4.97
2023-03-15T15:34:23.842Z,5.10
2023-03-15T15:36:50.863Z,5.20
2023-03-15T15:39:24.544Z,4.43
2023-03-15T15:41:51.083Z,4.22
2023-03-15T15:44:26.177Z,3.85
2023-03-15T15:46:55.464Z,4.50
2023-03-15T15:49:22.115Z,4.43
2023-03-15T15:51:49.108Z,3.90
2023-03-15T15:54:21.415Z,4.47
2023-03-15T15:56:53.545Z,3.83
2023-03-15T15:59:20.516Z,4.03
2023-03-15T16:01:59.642Z,4.60
2023-03-15T16:04:30.875Z,3.80
2023-03-15T16:07:02.513Z,3.38
2023-03-15T16:09:31.992Z,3.80
2023-03-15T16:11:58.779Z,3.70
2023-03-15T16:14:28.288Z,4.20
2023-03-15T16:16:55.400Z,3.23
2023-03-15T16:19:21.897Z,3.80
2023-03-15T16:21:51.977Z,3.00
2023-03-15T16:24:26.254Z,2.90
2023-03-15T16:27:05.859Z,3.22
2023-03-15T16:29:32.315Z,3.03
2023-03-15T16:32:10.046Z,2.92
2023-03-15T16:34:42.670Z,3.70
2023-03-15T16:37:15.147Z,3.53
2023-03-15T16:39:50.566Z,3.20
2023-03-15T16:42:18.625Z,3.13
2023-03-15T16:44:45.222Z,2.97
2023-03-15T16:47:12.609Z,2.80
2023-03-15T16:49:39.178Z,3.00
2023-03-15T16:52:07.864Z,3.88
2023-03-15T16:54:41.348Z,4.30
2023-03-15T16:57:22.069Z,4.40
2023-03-15T16:59:49.730Z,3.92
2023-03-15T17:02:19.773Z,3.90
2023-03-15T17:04:46.851Z,4.10
2023-03-15T17:07:13.670Z,3.93
2023-03-15T17:09:42.288Z,4.30
2023-03-15T17:12:20.941Z,3.78
2023-03-15T17:14:47.658Z,3.83
2023-03-15T17:17:14.201Z,3.80
2023-03-15T17:19:40.989Z,3.90
2023-03-15T17:22:07.785Z,4.35
2023-03-15T17:24:34.487Z,3.78
2023-03-15T17:27:01.340Z,4.15
2023-03-15T17:29:28.124Z,4.22
2023-03-15T17:31:54.810Z,4.20
2023-03-15T17:34:22.121Z,4.70
2023-03-15T17:36:48.738Z,4.68
2023-03-15T17:39:16.777Z,4.80
2023-03-15T17:41:48.531Z,4.32
2023-03-15T17:44:16.959Z,4.53
2023-03-15T17:46:43.576Z,4.45
2023-03-15T17:49:10.888Z,4.10
2023-03-15T17:51:37.963Z,4.10
2023-03-15T17:54:16.249Z,3.78
2023-03-15T17:56:42.989Z,3.20
2023-03-15T17:59:14.656Z,3.53
2023-03-15T18:01:43.879Z,3.85
2023-03-15T18:04:12.705Z,3.53
2023-03-15T18:06:39.557Z,2.97
2023-03-15T18:09:06.309Z,3.30
2023-03-15T18:11:34.206Z,2.50
2023-03-15T18:14:00.926Z,2.70
2023-03-15T18:16:27.928Z,2.65
2023-03-15T18:18:54.762Z,2.85
2023-03-15T18:21:24.549Z,2.57
2023-03-15T18:23:52.390Z,3.10
2023-03-15T18:26:22.679Z,4.13
2023-03-15T18:28:52.735Z,4.32
2023-03-15T18:31:21.919Z,2.80
2023-03-15T18:33:51.030Z,2.63
2023-03-15T18:36:21.023Z,2.53
2023-03-15T18:38:48.001Z,2.55
2023-03-15T18:41:20.945Z,2.90
2023-03-15T18:43:51.513Z,2.80
2023-03-15T18:46:21.291Z,2.80
2023-03-15T18:48:51.080Z,2.75
2023-03-15T18:51:17.870Z,2.83
2023-03-15T18:53:45.330Z,2.88
2023-03-15T18:56:17.155Z,2.72
2023-03-15T18:58:43.963Z,3.10
2023-03-15T19:01:13.737Z,3.10
2023-03-15T19:03:43.695Z,3.00
2023-03-15T19:06:12.542Z,2.90
2023-03-15T19:08:39.262Z,3.20
2023-03-15T19:11:06.632Z,3.47
2023-03-15T19:13:33.591Z,3.10
2023-03-15T19:16:06.541Z,3.45
2023-03-15T19:18:33.376Z,3.10
2023-03-15T19:21:01.856Z,3.83
2023-03-15T19:23:30.591Z,2.60
2023-03-15T19:25:57.124Z,2.47
2023-03-15T19:28:23.669Z,2.05
2023-03-15T19:30:50.257Z,3.00
2023-03-15T19:33:21.169Z,2.10
2023-03-15T19:35:47.907Z,2.47
2023-03-15T19:38:14.846Z,2.58
2023-03-15T19:40:41.405Z,2.28
2023-03-15T19:43:10.182Z,2.50
2023-03-15T19:45:37.102Z,2.88
2023-03-15T19:48:03.684Z,2.63
2023-03-15T19:50:31.386Z,2.65
2023-03-15T19:52:58.601Z,3.25
2023-03-15T19:55:27.247Z,2.60
2023-03-15T19:57:54.963Z,2.88
2023-03-15T20:00:30.962Z,2.97
2023-03-15T20:02:57.560Z,3.67
2023-03-15T20:05:24.140Z,3.20
2023-03-15T20:07:51.031Z,2.92
2023-03-15T20:10:19.164Z,3.20
2023-03-15T20:12:46.358Z,3.43
2023-03-15T20:15:15.255Z,3.50
2023-03-15T20:17:42.298Z,3.72
2023-03-15T20:20:10.779Z,3.63
2023-03-15T20:22:40.626Z,3.63
2023-03-15T20:25:08.877Z,3.50
2023-03-15T20:27:38.291Z,3.20
2023-03-15T20:30:09.277Z,2.45
2023-03-15T20:32:36.550Z,3.08
2023-03-15T20:35:03.392Z,2.55
2023-03-15T20:37:39.655Z,2.60
2023-03-15T20:40:07.860Z,2.80
2023-03-15T20:42:34.731Z,2.70
2023-03-15T20:45:01.401Z,2.90
2023-03-15T20:47:28.068Z,3.05
2023-03-15T20:49:54.943Z,2.73
2023-03-15T20:52:21.483Z,3.72
2023-03-15T20:54:48.053Z,3.17
2023-03-15T20:57:14.766Z,3.40
2023-03-15T20:59:41.505Z,3.67
2023-03-15T21:02:10.781Z,3.00
2023-03-15T21:04:37.826Z,3.55
2023-03-15T21:07:04.421Z,3.28
2023-03-15T21:09:32.026Z,3.17
2023-03-15T21:12:01.492Z,3.45
2023-03-15T21:14:28.083Z,3.57
2023-03-15T21:16:55.066Z,3.28
2023-03-15T21:19:23.967Z,4.00
2023-03-15T21:21:51.673Z,3.47
2023-03-15T21:24:21.179Z,3.00
2023-03-15T21:26:47.763Z,3.40
2023-03-15T21:29:14.688Z,3.58
2023-03-15T21:31:41.322Z,3.90
2023-03-15T21:34:07.917Z,3.50
2023-03-15T21:36:34.476Z,4.43
2023-03-15T21:39:01.028Z,3.60
2023-03-15T21:41:27.678Z,3.95
2023-03-15T21:43:54.410Z,3.70
2023-03-15T21:46:24.252Z,4.28
2023-03-15T21:48:53.606Z,4.32
2023-03-15T21:51:20.234Z,3.73
2023-03-15T21:53:46.762Z,4.25
2023-03-15T21:56:13.607Z,4.28
2023-03-15T21:58:40.246Z,3.80
2023-03-15T22:01:08.217Z,3.88
2023-03-15T22:03:36.875Z,4.27
2023-03-15T22:06:06.499Z,4.15
2023-03-15T22:08:33.454Z,3.83
2023-03-15T22:11:00.238Z,4.25
2023-03-15T22:13:27.090Z,3.72
2023-03-15T22:15:53.647Z,4.20
2023-03-15T22:18:20.179Z,4.30
2023-03-15T22:20:51.199Z,3.58
2023-03-15T22:23:18.169Z,3.78
2023-03-15T22:25:44.699Z,4.30
2023-03-15T22:28:11.277Z,3.73
2023-03-15T22:30:37.903Z,3.50
2023-03-15T22:33:04.853Z,3.35
2023-03-15T22:35:34.089Z,3.83
2023-03-15T22:38:00.724Z,3.50
2023-03-15T22:40:28.557Z,3.37
2023-03-15T22:42:55.263Z,3.58
2023-03-15T22:45:22.012Z,3.05
2023-03-15T22:47:49.740Z,3.08
2023-03-15T22:50:19.360Z,2.95
2023-03-15T22:52:45.968Z,2.97
2023-03-15T22:55:12.846Z,3.40
2023-03-15T22:57:39.412Z,3.45
2023-03-15T23:00:10.174Z,3.50
2023-03-15T23:02:46.781Z,3.33
2023-03-15T23:05:14.093Z,3.37
2023-03-15T23:07:40.881Z,3.00
2023-03-15T23:10:08.429Z,3.47
2023-03-15T23:12:36.597Z,3.58
2023-03-15T23:15:06.341Z,3.45
2023-03-15T23:17:32.936Z,2.90
2023-03-15T23:20:00.599Z,3.47
2023-03-15T23:22:27.438Z,2.85
2023-03-15T23:24:54.088Z,3.17
2023-03-15T23:27:20.866Z,3.00
2023-03-15T23:29:54.403Z,3.20
2023-03-15T23:32:22.322Z,3.28
2023-03-15T23:34:49.172Z,3.35
2023-03-15T23:37:19.872Z,3.35
2023-03-15T23:39:46.611Z,3.25
2023-03-15T23:42:13.126Z,3.83
2023-03-15T23:44:39.787Z,3.45
2023-03-15T23:47:06.702Z,3.55
2023-03-15T23:49:34.232Z,3.25
2023-03-15T23:52:02.413Z,4.28
2023-03-15T23:54:29.148Z,4.80
2023-03-15T23:56:55.948Z,4.07
2023-03-15T23:59:22.704Z,4.10
